Terminal Aerodrome Forecast
Issued by NWS Jackson, MS

Home | Current Version | Previous Version | Text Only | Print | Product List | Glossary On
Versions: 1 2 3 4 5 6 7 8 9 10 11 12 13 14 15 16 17
000
FTUS44 KJAN 290546
TAFHBG
TAF
KHBG 290546Z 2906/3006 16003KT 5SM BR SCT007 BKN012
     FM290900 00000KT 1SM BR BKN003
     FM291400 16011G20KT P6SM SCT040=

USA.gov is the U.S. government's official web portal to all federal, state and local government web resources and services.